createdAt,value
2022-11-26T00:02:25.535Z,84.70
2022-11-26T00:05:33.686Z,83.40
2022-11-26T00:08:39.805Z,73.50
2022-11-26T00:11:46.066Z,62.40
2022-11-26T00:14:52.520Z,58.40
2022-11-26T00:17:59.179Z,84.40
2022-11-26T00:21:05.397Z,82.60
2022-11-26T00:24:26.064Z,79.10
2022-11-26T00:27:32.260Z,73.70
2022-11-26T00:30:38.326Z,71.10
2022-11-26T00:33:44.529Z,72.50
2022-11-26T00:36:50.811Z,64.50
2022-11-26T00:43:02.454Z,74.60
2022-11-26T00:46:10.905Z,74.60
2022-11-26T00:49:17.894Z,81.30
2022-11-26T00:52:31.648Z,74.90
2022-11-26T00:55:40.230Z,75.00
2022-11-26T00:58:46.861Z,73.40
2022-11-26T01:01:52.998Z,71.90
2022-11-26T01:04:59.198Z,82.40
2022-11-26T01:08:20.133Z,75.10
2022-11-26T01:11:26.406Z,76.20
2022-11-26T01:17:37.141Z,62.20
2022-11-26T01:20:43.573Z,63.40
2022-11-26T01:23:50.048Z,51.50
2022-11-26T01:26:56.304Z,73.50
2022-11-26T01:30:02.491Z,74.40
2022-11-26T01:33:08.718Z,56.30
2022-11-26T01:36:24.508Z,59.50
2022-11-26T01:39:30.624Z,67.30
2022-11-26T01:42:43.697Z,68.40
2022-11-26T01:45:49.878Z,60.60
2022-11-26T01:48:56.335Z,50.00
2022-11-26T01:55:16.133Z,42.20
2022-11-26T01:58:25.992Z,40.30
2022-11-26T02:01:33.302Z,37.30
2022-11-26T02:04:42.913Z,43.50
2022-11-26T02:07:49.779Z,38.10
2022-11-26T02:10:56.149Z,50.20
2022-11-26T02:17:21.033Z,46.80
2022-11-26T02:20:42.426Z,63.60
2022-11-26T02:24:19.323Z,65.50
2022-11-26T02:28:00.462Z,61.40
2022-11-26T02:31:11.043Z,54.10
2022-11-26T02:34:23.940Z,56.40
2022-11-26T02:37:37.012Z,66.20
2022-11-26T02:40:43.157Z,70.30
2022-11-26T02:43:49.781Z,63.10
2022-11-26T02:47:02.451Z,66.60
2022-11-26T02:50:13.501Z,67.80
2022-11-26T02:53:22.948Z,67.20
2022-11-26T02:56:30.469Z,65.70
2022-11-26T02:59:38.393Z,66.70
2022-11-26T03:02:48.577Z,60.40
2022-11-26T03:05:57.479Z,61.10
2022-11-26T03:09:03.905Z,62.20
2022-11-26T03:12:10.533Z,56.80
2022-11-26T03:15:16.849Z,55.00
2022-11-26T03:21:27.390Z,57.80
2022-11-26T03:24:33.624Z,57.80
2022-11-26T03:27:39.854Z,56.30
2022-11-26T03:30:46.030Z,56.70
2022-11-26T03:33:52.248Z,56.00
2022-11-26T03:36:58.388Z,57.60
2022-11-26T03:40:04.906Z,56.60
2022-11-26T03:43:11.025Z,53.40
2022-11-26T03:46:17.265Z,53.10
2022-11-26T03:52:28.065Z,54.40
2022-11-26T03:55:34.221Z,54.80
2022-11-26T03:58:40.393Z,55.60
2022-11-26T04:01:46.588Z,55.40
2022-11-26T04:07:57.428Z,52.50
2022-11-26T04:11:04.010Z,51.30
2022-11-26T04:14:10.198Z,53.60
2022-11-26T04:17:16.300Z,52.80
2022-11-26T04:20:22.588Z,53.90
2022-11-26T04:26:33.355Z,48.00
2022-11-26T04:29:39.563Z,47.70
2022-11-26T04:32:45.729Z,44.90
2022-11-26T04:35:52.630Z,51.70
2022-11-26T04:39:00.133Z,45.50
2022-11-26T04:42:06.328Z,47.40
2022-11-26T04:45:14.602Z,47.80
2022-11-26T04:48:20.957Z,46.80
2022-11-26T04:54:31.643Z,47.40
2022-11-26T04:57:37.821Z,46.80
2022-11-26T05:00:47.374Z,49.40
2022-11-26T05:03:56.544Z,45.00
2022-11-26T05:07:02.776Z,46.80
2022-11-26T05:13:14.836Z,40.40
2022-11-26T05:16:21.225Z,44.90
2022-11-26T05:19:27.677Z,41.20
2022-11-26T05:22:33.773Z,43.90
2022-11-26T05:25:40.033Z,39.40
2022-11-26T05:28:46.200Z,40.60
2022-11-26T05:31:52.438Z,41.40
2022-11-26T05:38:07.024Z,43.40
2022-11-26T05:41:13.143Z,40.30
2022-11-26T05:44:19.315Z,41.20
2022-11-26T05:47:25.331Z,42.20
2022-11-26T05:50:31.561Z,42.40
2022-11-26T05:56:42.068Z,48.90
2022-11-26T05:59:48.099Z,40.60
2022-11-26T06:02:54.232Z,46.30
2022-11-26T06:06:00.433Z,42.10
2022-11-26T06:09:07.142Z,44.30
2022-11-26T06:12:13.297Z,44.20
2022-11-26T06:15:19.504Z,42.60
2022-11-26T06:21:30.085Z,47.20
2022-11-26T06:24:36.639Z,44.10
2022-11-26T06:27:43.435Z,40.10
2022-11-26T06:30:49.684Z,41.60
2022-11-26T06:33:57.650Z,40.70
2022-11-26T06:37:04.070Z,38.60
2022-11-26T06:40:17.135Z,37.30
2022-11-26T06:43:23.096Z,40.70
2022-11-26T06:46:29.549Z,39.50
2022-11-26T06:49:36.008Z,41.00
2022-11-26T06:52:42.060Z,43.70
2022-11-26T06:55:48.207Z,38.90
2022-11-26T06:58:56.441Z,40.40
2022-11-26T07:02:02.835Z,39.30
2022-11-26T07:05:09.785Z,39.60
2022-11-26T07:08:15.960Z,41.40
2022-11-26T07:11:22.653Z,41.00
2022-11-26T07:14:28.796Z,56.40
2022-11-26T07:17:34.901Z,49.10
2022-11-26T07:20:41.335Z,104.80
2022-11-26T07:23:47.983Z,55.90
2022-11-26T07:26:54.660Z,59.10
2022-11-26T07:30:00.729Z,64.60
2022-11-26T07:33:06.884Z,67.40
2022-11-26T07:36:17.908Z,64.70
2022-11-26T07:39:24.046Z,55.40
2022-11-26T07:42:33.383Z,52.40
2022-11-26T07:45:40.548Z,59.10
2022-11-26T07:48:47.145Z,62.30
2022-11-26T07:51:53.265Z,52.80
2022-11-26T07:54:59.524Z,41.80
2022-11-26T07:58:05.657Z,43.70
2022-11-26T08:01:14.857Z,43.90
2022-11-26T08:04:20.939Z,45.60
2022-11-26T08:07:29.430Z,44.60
2022-11-26T08:10:35.725Z,45.50
2022-11-26T08:13:41.901Z,55.00
2022-11-26T08:16:47.968Z,47.80
2022-11-26T08:19:54.185Z,49.70
2022-11-26T08:23:00.369Z,51.80
2022-11-26T08:26:23.863Z,50.90
2022-11-26T08:29:33.991Z,53.10
2022-11-26T08:32:40.201Z,51.70
2022-11-26T08:36:06.101Z,53.20
2022-11-26T08:39:14.011Z,50.60
2022-11-26T08:42:20.249Z,54.80
2022-11-26T08:45:26.410Z,56.40
2022-11-26T08:48:33.485Z,48.20
2022-11-26T08:51:39.671Z,48.40
2022-11-26T08:54:46.049Z,50.40
2022-11-26T08:57:52.381Z,49.80
2022-11-26T09:00:58.874Z,45.90
2022-11-26T09:04:06.357Z,49.50
2022-11-26T09:07:12.544Z,45.70
2022-11-26T09:10:18.804Z,47.00
2022-11-26T09:13:24.925Z,43.20
2022-11-26T09:16:31.278Z,44.80
2022-11-26T09:19:37.406Z,41.90
2022-11-26T09:22:43.552Z,41.70
2022-11-26T09:25:52.585Z,42.30
2022-11-26T09:28:58.713Z,42.80
2022-11-26T09:35:31.002Z,47.30
2022-11-26T09:38:37.743Z,42.40
2022-11-26T09:41:50.202Z,44.10
2022-11-26T09:45:10.107Z,41.80
2022-11-26T09:48:21.489Z,43.10
2022-11-26T09:51:28.617Z,38.70
2022-11-26T09:54:35.094Z,39.70
2022-11-26T09:57:45.066Z,35.70
2022-11-26T10:00:52.899Z,35.10
2022-11-26T10:03:59.632Z,34.30
2022-11-26T10:07:16.053Z,33.00
2022-11-26T10:10:28.757Z,25.60
2022-11-26T10:13:46.236Z,23.80
2022-11-26T10:17:15.115Z,25.50
2022-11-26T10:20:55.906Z,21.90
2022-11-26T10:24:06.077Z,24.30
2022-11-26T10:27:18.426Z,21.70
2022-11-26T10:30:26.513Z,22.40
2022-11-26T10:33:38.037Z,22.00
2022-11-26T10:36:46.780Z,23.10
2022-11-26T10:40:01.950Z,24.10
2022-11-26T10:43:20.109Z,22.20
2022-11-26T10:46:36.442Z,25.20
2022-11-26T10:49:42.880Z,22.50
2022-11-26T10:55:55.517Z,23.90
2022-11-26T10:59:05.248Z,25.00
2022-11-26T11:02:28.713Z,24.60
2022-11-26T11:05:36.124Z,27.40
2022-11-26T11:08:42.495Z,26.60
2022-11-26T11:14:53.697Z,32.30
2022-11-26T11:18:03.442Z,31.60
2022-11-26T11:21:17.001Z,33.80
2022-11-26T11:24:27.291Z,32.20
2022-11-26T11:27:43.656Z,30.40
2022-11-26T11:30:59.839Z,32.10
2022-11-26T11:37:22.621Z,28.40
2022-11-26T11:40:31.150Z,26.40
2022-11-26T11:43:39.513Z,27.70
2022-11-26T11:47:04.035Z,25.60
2022-11-26T11:50:26.560Z,27.90
2022-11-26T11:53:40.290Z,31.40
2022-11-26T11:56:52.669Z,30.20
2022-11-26T12:00:13.815Z,28.60
2022-11-26T12:03:44.594Z,27.50
2022-11-26T12:07:01.806Z,29.40
2022-11-26T12:10:15.237Z,26.60
2022-11-26T12:13:24.837Z,28.90
2022-11-26T12:16:36.584Z,28.20
2022-11-26T12:19:48.487Z,27.00
2022-11-26T12:23:00.193Z,28.20
2022-11-26T12:26:12.694Z,25.00
2022-11-26T12:29:28.626Z,25.20
2022-11-26T12:32:41.279Z,28.10
2022-11-26T12:35:54.134Z,25.20
2022-11-26T12:39:03.581Z,29.40
2022-11-26T12:42:18.348Z,28.20
2022-11-26T12:45:40.766Z,31.20
2022-11-26T12:48:52.677Z,31.70
2022-11-26T12:52:10.461Z,31.90
2022-11-26T12:55:22.172Z,29.20
2022-11-26T12:58:46.128Z,29.80
2022-11-26T13:01:52.445Z,31.30
2022-11-26T13:08:24.889Z,31.20
2022-11-26T13:11:41.638Z,29.70
2022-11-26T13:14:54.357Z,28.40
2022-11-26T13:18:02.346Z,28.80
2022-11-26T13:21:23.089Z,28.50
2022-11-26T13:24:52.113Z,25.80
2022-11-26T13:28:08.901Z,79.00
2022-11-26T13:31:33.131Z,45.00
2022-11-26T13:34:59.273Z,36.50
2022-11-26T13:41:29.202Z,32.30
2022-11-26T13:45:05.736Z,33.20
2022-11-26T13:48:17.659Z,29.00
2022-11-26T13:51:29.070Z,30.00
2022-11-26T13:54:43.378Z,40.70
2022-11-26T13:57:53.557Z,36.00
2022-11-26T14:01:19.988Z,45.90
2022-11-26T14:04:53.034Z,33.50
2022-11-26T14:08:38.729Z,29.80
2022-11-26T14:12:00.606Z,20.90
2022-11-26T14:15:39.724Z,24.30
2022-11-26T14:19:08.521Z,41.40
2022-11-26T14:22:31.183Z,26.00
2022-11-26T14:25:41.587Z,22.10
2022-11-26T14:28:48.715Z,33.60
2022-11-26T14:31:56.263Z,24.80
2022-11-26T14:35:02.533Z,23.80
2022-11-26T14:38:23.287Z,28.10
2022-11-26T14:41:29.086Z,24.30
2022-11-26T14:44:35.424Z,29.40
2022-11-26T14:47:44.338Z,24.60
2022-11-26T14:50:50.856Z,20.30
2022-11-26T14:53:58.136Z,19.80
2022-11-26T14:57:08.937Z,20.20
2022-11-26T15:00:27.181Z,20.60
2022-11-26T15:03:33.853Z,20.10
2022-11-26T15:06:45.794Z,20.10
2022-11-26T15:10:03.426Z,21.70
2022-11-26T15:13:17.970Z,23.70
2022-11-26T15:16:33.686Z,22.80
2022-11-26T15:19:42.203Z,24.50
2022-11-26T15:22:53.109Z,22.60
2022-11-26T15:26:01.287Z,22.90
2022-11-26T15:29:31.317Z,23.10
2022-11-26T15:32:37.482Z,21.80
2022-11-26T15:35:44.066Z,24.00
2022-11-26T15:39:08.396Z,21.60
2022-11-26T15:42:30.601Z,22.60
2022-11-26T15:45:42.452Z,23.10
2022-11-26T15:48:52.725Z,24.40
2022-11-26T15:52:03.704Z,23.40
2022-11-26T15:55:20.923Z,23.30
2022-11-26T15:58:31.028Z,24.90
2022-11-26T16:01:38.681Z,23.70
2022-11-26T16:04:50.108Z,24.80
2022-11-26T16:08:04.572Z,26.40
2022-11-26T16:11:21.542Z,26.00
2022-11-26T16:14:33.173Z,28.00
2022-11-26T16:17:40.400Z,25.50
2022-11-26T16:20:46.993Z,30.10
2022-11-26T16:23:59.257Z,27.60
2022-11-26T16:27:07.828Z,29.90
2022-11-26T16:30:18.041Z,30.10
2022-11-26T16:33:24.225Z,27.40
2022-11-26T16:36:35.372Z,29.50
2022-11-26T16:39:41.483Z,175.30
2022-11-26T16:42:48.183Z,51.20
2022-11-26T16:45:56.848Z,128.10
2022-11-26T16:49:02.979Z,63.90
2022-11-26T16:52:15.975Z,52.30
2022-11-26T16:55:23.829Z,48.70
2022-11-26T16:58:32.906Z,36.30
2022-11-26T17:01:38.982Z,33.40
2022-11-26T17:04:45.037Z,37.20
2022-11-26T17:07:54.095Z,30.20
2022-11-26T17:11:00.428Z,33.90
2022-11-26T17:17:13.421Z,40.80
2022-11-26T17:20:22.377Z,37.00
2022-11-26T17:23:29.247Z,40.10
2022-11-26T17:26:35.361Z,37.50
2022-11-26T17:29:43.031Z,56.10
2022-11-26T17:32:49.641Z,46.40
2022-11-26T17:35:55.854Z,37.60
2022-11-26T17:39:01.989Z,35.60
2022-11-26T17:42:08.802Z,36.70
2022-11-26T17:45:15.708Z,34.90
2022-11-26T17:48:26.457Z,40.00
2022-11-26T17:51:32.898Z,41.90
2022-11-26T17:54:39.169Z,53.30
2022-11-26T18:00:49.829Z,41.70
2022-11-26T18:03:55.869Z,38.50
2022-11-26T18:07:08.071Z,38.90
2022-11-26T18:10:16.317Z,40.40
2022-11-26T18:13:22.353Z,42.80
2022-11-26T18:16:28.615Z,41.00
2022-11-26T18:22:39.293Z,42.60
2022-11-26T18:25:45.728Z,48.30
2022-11-26T18:28:51.785Z,36.20
2022-11-26T18:31:57.944Z,40.40
2022-11-26T18:35:04.240Z,42.20
2022-11-26T18:41:16.274Z,39.40
2022-11-26T18:44:22.524Z,45.50
2022-11-26T18:47:28.680Z,40.00
2022-11-26T18:50:34.775Z,25.10
2022-11-26T18:53:41.621Z,28.20
2022-11-26T18:56:47.762Z,26.80
2022-11-26T18:59:53.985Z,27.10
2022-11-26T19:03:00.134Z,32.10
2022-11-26T19:06:10.143Z,24.00
2022-11-26T19:09:19.223Z,23.30
2022-11-26T19:12:25.377Z,22.00
2022-11-26T19:15:31.561Z,23.80
2022-11-26T19:18:38.017Z,24.30
2022-11-26T19:21:44.238Z,24.00
2022-11-26T19:24:50.789Z,24.50
2022-11-26T19:28:00.967Z,25.10
2022-11-26T19:31:12.198Z,23.30
2022-11-26T19:34:18.685Z,24.20
2022-11-26T19:37:24.749Z,20.90
2022-11-26T19:40:31.273Z,23.90
2022-11-26T19:43:40.367Z,22.60
2022-11-26T19:46:48.316Z,24.80
2022-11-26T19:49:54.417Z,22.20
2022-11-26T19:53:00.648Z,22.30
2022-11-26T19:59:12.658Z,23.70
2022-11-26T20:05:23.358Z,22.60
2022-11-26T20:08:29.506Z,22.90
2022-11-26T20:14:40.445Z,25.40
2022-11-26T20:17:46.586Z,24.50
2022-11-26T20:21:01.781Z,26.40
2022-11-26T20:24:10.691Z,28.30
2022-11-26T20:27:16.877Z,27.10
2022-11-26T20:30:24.954Z,30.00
2022-11-26T20:33:31.006Z,30.00
2022-11-26T20:36:37.850Z,31.10
2022-11-26T20:39:44.110Z,37.80
2022-11-26T20:42:50.321Z,57.30
2022-11-26T20:46:03.948Z,32.70
2022-11-26T20:49:11.809Z,28.40
2022-11-26T20:52:19.728Z,33.60
2022-11-26T20:55:26.090Z,33.90
2022-11-26T21:01:37.202Z,34.00
2022-11-26T21:04:43.325Z,32.90
2022-11-26T21:07:50.928Z,30.50
2022-11-26T21:10:57.094Z,31.10
2022-11-26T21:14:04.061Z,41.40
2022-11-26T21:17:10.400Z,48.60
2022-11-26T21:20:17.227Z,33.30
2022-11-26T21:23:23.369Z,34.30
2022-11-26T21:26:29.633Z,34.90
2022-11-26T21:32:40.277Z,33.70
2022-11-26T21:35:46.363Z,39.90
2022-11-26T21:38:52.668Z,47.30
2022-11-26T21:45:03.225Z,40.10
2022-11-26T21:48:09.765Z,35.70
2022-11-26T21:51:17.675Z,35.10
2022-11-26T21:54:23.813Z,37.40
2022-11-26T21:57:33.568Z,34.10
2022-11-26T22:00:39.724Z,32.10
2022-11-26T22:03:48.507Z,31.10
2022-11-26T22:06:54.614Z,29.10
2022-11-26T22:13:05.452Z,33.00
2022-11-26T22:16:13.327Z,42.00
2022-11-26T22:19:19.758Z,47.00
2022-11-26T22:25:30.413Z,46.40
2022-11-26T22:28:38.665Z,46.10
2022-11-26T22:31:45.535Z,48.20
2022-11-26T22:34:51.610Z,49.50
2022-11-26T22:37:57.830Z,49.60
2022-11-26T22:41:05.818Z,47.50
2022-11-26T22:44:13.266Z,44.80
2022-11-26T22:47:19.531Z,47.70
2022-11-26T22:50:25.973Z,43.90
2022-11-26T22:53:33.417Z,39.20
2022-11-26T22:56:39.906Z,45.70
2022-11-26T22:59:45.977Z,41.30
2022-11-26T23:02:52.184Z,41.70
2022-11-26T23:09:04.521Z,42.30
2022-11-26T23:12:10.965Z,40.50
2022-11-26T23:15:17.360Z,41.30
2022-11-26T23:21:29.933Z,41.80
2022-11-26T23:24:35.991Z,39.10
2022-11-26T23:27:42.119Z,38.30
2022-11-26T23:30:48.218Z,39.40
2022-11-26T23:33:54.425Z,39.30
2022-11-26T23:37:00.471Z,38.90
2022-11-26T23:40:08.133Z,40.10
2022-11-26T23:43:14.286Z,40.70
2022-11-26T23:46:22.124Z,37.90
2022-11-26T23:49:28.405Z,38.30
2022-11-26T23:52:34.502Z,38.30
2022-11-26T23:55:40.630Z,37.60
2022-11-26T23:58:49.106Z,40.80
